This is the latest recevied weather packets stored in our database for station/object K7YVO. If no packets are shown the sender has not sent any weather packets the latest 10 day(s).
| Time | Temp. | Humidity | Pressure | Rain* | Wind** | Luminosity | Snow |
|---|---|---|---|---|---|---|---|
| 1777533465 | 12.78° C | 59% | 1022 hPa | 0 mm | - | 0 W/m² | - |
| 1777533161 | 12.22° C | 62% | 1022.1 hPa | 0 mm | - | 0 W/m² | - |
| 1777532859 | 11.67° C | 66% | 1022.1 hPa | 0 mm | - | 0 W/m² | - |
| 1777532555 | 11.67° C | 67% | 1022.1 hPa | 0 mm | - | 0 W/m² | - |
| 1777532252 | 12.22° C | 67% | 1022 hPa | 0 mm | - | 0 W/m² | - |
| 1777531949 | 12.78° C | 64% | 1022 hPa | 0 mm | - | 0 W/m² | - |
| 1777531645 | 12.78° C | 64% | 1022.1 hPa | 0 mm | - | 0 W/m² | - |
| 1777531040 | 13.33° C | 60% | 1022 hPa | 0 mm | - | 0 W/m² | - |
| 1777530737 | 13.33° C | 61% | 1022.2 hPa | 0 mm | - | 0 W/m² | - |
| 1777530435 | 13.33° C | 61% | 1022 hPa | 0 mm | - | 0 W/m² | - |
| 1777530130 | 13.33° C | 62% | 1022.1 hPa | 0 mm | - | 0 W/m² | - |
| 1777529828 | 13.33° C | 63% | 1021.9 hPa | 0 mm | - | 0 W/m² | - |
| 1777529524 | 13.33° C | 64% | 1022 hPa | 0 mm | - | 0 W/m² | - |
| 1777529223 | 13.33° C | 64% | 1022 hPa | 0 mm | - | 0 W/m² | - |
| 1777528922 | 13.33° C | 64% | 1022.1 hPa | 0 mm | - | 0 W/m² | - |
| 1777528619 | 13.33° C | 64% | 1021.9 hPa | 0 mm | - | 0 W/m² | - |
| 1777528316 | 13.89° C | 65% | 1022.2 hPa | 0 mm | - | 0 W/m² | - |
| 1777528015 | 13.89° C | 65% | 1022.2 hPa | 0 mm | - | 0 W/m² | - |
| 1777527710 | 13.89° C | 65% | 1022.1 hPa | 0 mm | - | 0 W/m² | - |
| 1777527405 | 13.33° C | 66% | 1022.1 hPa | 0 mm | - | 0 W/m² | - |
| 1777527101 | 13.33° C | 67% | 1022.4 hPa | 0 mm | - | 0 W/m² | - |
| 1777526797 | 13.33° C | 68% | 1022.2 hPa | 0 mm | - | 0 W/m² | - |
| 1777526492 | 13.33° C | 71% | 1022.2 hPa | 0 mm | - | 0 W/m² | - |
| 1777526187 | 13.33° C | 70% | 1022.3 hPa | 0 mm | - | 0 W/m² | - |
| 1777525883 | 13.33° C | 71% | 1022.3 hPa | 0 mm | - | 0 W/m² | - |
* Rain latest hour (hover to see other rain measurements)
** Current wind speed in m/s (hover to see current wind gust speed)